Time;durP1;ratioP1;P1;durP2;ratioP2;P2;SDS_P1;SDS_P2;PMS_P1;PMS_P2;Temp;Humidity;BMP_temperature;BMP_pressure;BME280_temperature;BME280_humidity;BME280_pressure;Samples;Min_cycle;Max_cycle;Signal;HPM_P1;HPM_P2
2023/04/29 00:01:19;;;;;;;4.97;3.27;;;;;;;9.15;55.97;63899.06;5033875;28;20241;-55
2023/04/29 00:03:44;;;;;;;4.37;2.97;;;;;;;9.28;55.02;63915.25;5033941;28;20217;-56
2023/04/29 00:06:10;;;;;;;4.47;2.80;;;;;;;9.33;54.60;63921.25;5016207;28;20268;-56
2023/04/29 00:08:36;;;;;;;7.97;3.67;;;;;;;9.21;55.13;63907.59;5034167;28;20214;-57
2023/04/29 00:11:02;;;;;;;5.00;3.27;;;;;;;9.08;55.46;63891.41;5033794;28;20186;-58
2023/04/29 00:13:27;;;;;;;5.17;2.77;;;;;;;9.04;55.68;63889.00;5033648;28;20225;-59
2023/04/29 00:15:52;;;;;;;3.37;2.97;;;;;;;8.98;55.95;63882.44;5016186;28;20210;-58
2023/04/29 00:18:18;;;;;;;8.13;3.30;;;;;;;9.04;56.73;63886.50;5015992;28;20221;-58
2023/04/29 00:20:43;;;;;;;4.03;3.07;;;;;;;9.08;56.61;63890.88;5033630;28;20607;-55
2023/04/29 00:23:09;;;;;;;4.57;3.00;;;;;;;8.93;56.84;63874.47;5015673;28;20218;-56
2023/04/29 00:25:34;;;;;;;6.00;2.90;;;;;;;8.86;56.67;63866.81;5033608;28;20339;-56
2023/04/29 00:28:01;;;;;;;3.97;2.83;;;;;;;8.86;56.76;63869.88;5033593;28;20214;-56
2023/04/29 00:30:27;;;;;;;10.43;3.00;;;;;;;8.85;56.51;63866.28;5016240;28;20269;-57
2023/04/29 00:32:53;;;;;;;5.83;2.77;;;;;;;9.00;57.32;63884.63;5033492;28;20726;-57
2023/04/29 00:35:19;;;;;;;4.33;2.90;;;;;;;9.07;57.15;63887.81;5033444;28;20182;-57
2023/04/29 00:37:44;;;;;;;3.97;2.60;;;;;;;9.30;56.41;63917.44;5033387;28;20193;-57
2023/04/29 00:40:12;;;;;;;6.83;2.77;;;;;;;9.36;54.94;63923.97;5033421;28;20205;-58
2023/04/29 00:42:38;;;;;;;3.67;2.70;;;;;;;9.22;55.92;63909.22;5033254;28;20210;-56
2023/04/29 00:45:03;;;;;;;6.30;3.20;;;;;;;9.07;57.65;63890.31;5033248;28;20198;-55
2023/04/29 00:47:29;;;;;;;5.37;2.60;;;;;;;9.26;57.27;63910.53;5032304;28;20192;-57
2023/04/29 00:49:54;;;;;;;5.67;2.70;;;;;;;9.44;57.92;63932.72;5033060;28;20644;-55
2023/04/29 00:52:21;;;;;;;5.27;2.90;;;;;;;9.60;56.37;63947.16;5033376;28;20645;-56
2023/04/29 00:54:47;;;;;;;4.37;3.00;;;;;;;9.77;56.06;63968.28;5033366;28;20212;-56
2023/04/29 00:57:14;;;;;;;5.67;2.70;;;;;;;9.68;56.48;63958.41;5015338;28;20190;-56
2023/04/29 00:59:39;;;;;;;6.23;2.83;;;;;;;9.71;55.90;63959.75;5033339;28;20684;-57
2023/04/29 01:02:05;;;;;;;3.80;2.60;;;;;;;9.51;56.43;63940.41;5032956;28;20263;-58
2023/04/29 01:04:30;;;;;;;5.77;2.80;;;;;;;9.57;56.64;63944.44;5033153;28;20218;-57
2023/04/29 01:07:14;;;;;;;5.77;3.47;;;;;;;9.60;56.79;63947.16;5033021;28;20190;-59
2023/04/29 01:10:13;;;;;;;9.33;4.07;;;;;;;9.51;57.20;63937.31;5032879;28;20679;-58
2023/04/29 01:12:39;;;;;;;6.43;3.53;;;;;;;9.43;57.29;63931.66;5032779;28;20200;-58
2023/04/29 01:15:29;;;;;;;8.13;3.77;;;;;;;9.23;59.12;63904.75;5032962;28;20186;-58
2023/04/29 01:17:59;;;;;;;8.73;3.60;;;;;;;9.28;59.04;63913.28;5033087;28;20652;-55
2023/04/29 01:20:25;;;;;;;4.73;3.70;;;;;;;9.48;58.70;63936.56;5033002;28;20217;-55
2023/04/29 01:22:50;;;;;;;4.53;3.50;;;;;;;9.48;58.63;63932.06;5032720;28;20637;-56
2023/04/29 01:25:16;;;;;;;9.40;4.63;;;;;;;9.53;58.68;63942.59;5032953;28;20197;-57
2023/04/29 01:28:20;;;;;;;9.63;4.60;;;;;;;9.65;58.19;63955.16;5032689;28;20183;-56
2023/04/29 01:31:05;;;;;;;6.63;3.97;;;;;;;9.70;57.71;63960.59;5003274;28;20197;-56
2023/04/29 01:33:57;;;;;;;7.53;4.10;;;;;;;9.47;60.16;63933.50;5032465;28;20218;-55
2023/04/29 01:37:03;;;;;;;5.70;3.47;;;;;;;9.76;59.52;63969.69;5032605;28;20641;-59
2023/04/29 01:39:38;;;;;;;7.07;3.63;;;;;;;9.63;59.57;63951.00;5032817;28;20284;-60
2023/04/29 01:42:19;;;;;;;5.93;3.40;;;;;;;9.46;59.70;63931.84;5032472;28;20267;-58
2023/04/29 01:44:48;;;;;;;4.80;2.90;;;;;;;9.37;57.18;63924.53;5032544;28;20217;-60
2023/04/29 01:47:14;;;;;;;5.13;2.80;;;;;;;9.31;57.24;63918.53;5032357;28;20190;-59
2023/04/29 01:49:39;;;;;;;3.33;2.47;;;;;;;9.05;56.77;63885.09;5032254;28;20214;-58
2023/04/29 01:52:06;;;;;;;4.13;2.53;;;;;;;8.64;58.33;63842.78;5032253;28;20194;-56
2023/04/29 01:54:38;;;;;;;3.63;2.30;;;;;;;8.52;57.99;63829.69;5032239;28;20202;-56
2023/04/29 01:57:03;;;;;;;5.93;3.07;;;;;;;8.20;59.76;63795.81;5032141;28;20198;-56
2023/04/29 01:59:30;;;;;;;4.13;2.60;;;;;;;7.92;61.26;63767.22;5031955;28;20217;-54
2023/04/29 02:01:57;;;;;;;5.80;2.90;;;;;;;7.85;62.03;63759.56;5031860;28;20254;-57
2023/04/29 02:04:23;;;;;;;4.33;2.80;;;;;;;7.79;62.60;63753.00;5032426;28;20214;-59
2023/04/29 02:06:49;;;;;;;5.37;2.63;;;;;;;7.59;62.79;63734.78;5032035;28;20194;-59
2023/04/29 02:09:14;;;;;;;3.87;2.53;;;;;;;7.47;63.20;63716.66;5032302;28;20216;-60
2023/04/29 02:11:40;;;;;;;7.30;3.13;;;;;;;7.46;63.64;63718.09;5032021;28;20649;-58
2023/04/29 02:14:05;;;;;;;5.33;2.60;;;;;;;7.44;63.96;63712.84;5032128;28;20264;-60
2023/04/29 02:19:15;;;;;;;7.67;2.47;;;;;;;7.75;64.47;63749.19;5032355;28;20224;-55
2023/04/29 02:21:41;;;;;;;6.40;2.77;;;;;;;7.83;64.25;63754.88;5014241;28;20217;-58
2023/04/29 02:24:06;;;;;;;4.07;2.50;;;;;;;8.09;62.95;63785.75;5032142;28;20664;-58
2023/04/29 02:26:33;;;;;;;5.40;3.20;;;;;;;8.15;62.98;63789.81;5031776;28;20580;-58
2023/04/29 02:28:59;;;;;;;4.47;2.40;;;;;;;8.29;62.11;63807.63;5032002;28;20226;-58
2023/04/29 02:31:24;;;;;;;4.70;2.87;;;;;;;8.36;61.61;63812.75;5031677;28;20189;-58
2023/04/29 02:33:50;;;;;;;4.97;2.57;;;;;;;8.40;61.50;63819.63;5031748;28;20264;-57
2023/04/29 02:36:16;;;;;;;4.63;3.17;;;;;;;8.28;62.10;63804.56;5031943;28;20712;-56
2023/04/29 02:38:41;;;;;;;6.23;3.30;;;;;;;8.35;60.86;63812.22;5031496;28;20292;-59
2023/04/29 02:41:07;;;;;;;4.50;3.07;;;;;;;8.41;62.00;63818.22;5031532;28;20664;-58
2023/04/29 02:43:32;;;;;;;3.50;2.60;;;;;;;8.56;61.03;63839.06;5031526;28;20218;-59
2023/04/29 02:45:59;;;;;;;10.43;3.23;;;;;;;8.57;61.11;63837.66;5031444;28;20265;-59
2023/04/29 02:48:24;;;;;;;5.70;2.53;;;;;;;8.60;61.10;63838.41;5031613;28;20288;-58
2023/04/29 02:50:50;;;;;;;6.67;3.07;;;;;;;8.78;60.30;63860.59;5031389;28;20202;-59
2023/04/29 02:53:15;;;;;;;5.20;2.77;;;;;;;8.81;60.56;63861.34;5031468;28;20238;-58
2023/04/29 02:55:42;;;;;;;3.50;2.90;;;;;;;8.58;61.73;63836.78;5031396;28;20680;-59
2023/04/29 02:58:07;;;;;;;4.80;3.20;;;;;;;8.52;61.88;63829.69;5031246;28;20218;-61
2023/04/29 03:00:32;;;;;;;8.87;2.80;;;;;;;8.52;62.61;63829.69;5031191;28;20256;-59
2023/04/29 03:02:58;;;;;;;5.70;3.80;;;;;;;8.33;63.35;63810.03;5030990;28;20245;-59
2023/04/29 03:05:23;;;;;;;6.53;3.43;;;;;;;8.14;63.07;63791.22;5031398;28;20194;-59
2023/04/29 03:07:48;;;;;;;8.83;3.87;;;;;;;7.97;64.26;63773.22;5031186;28;20225;-58
2023/04/29 03:10:14;;;;;;;7.57;3.87;;;;;;;8.02;65.13;63778.66;5030832;28;20644;-59
2023/04/29 03:12:39;;;;;;;8.37;3.70;;;;;;;8.09;65.44;63783.81;5030804;28;20194;-58
2023/04/29 03:15:06;;;;;;;6.73;3.87;;;;;;;8.26;65.08;63802.38;5031030;28;20263;-58
2023/04/29 03:17:32;;;;;;;8.57;4.70;;;;;;;8.45;64.68;63822.56;5030889;28;20194;-55
2023/04/29 03:19:58;;;;;;;7.17;4.50;;;;;;;8.57;64.38;63837.66;5030994;28;20206;-57
2023/04/29 03:22:23;;;;;;;8.77;4.47;;;;;;;8.59;64.48;63837.31;5030772;28;20214;-57
2023/04/29 03:24:49;;;;;;;7.37;4.57;;;;;;;8.59;65.22;63840.38;5030844;28;20300;-58
2023/04/29 03:27:14;;;;;;;8.23;4.70;;;;;;;8.60;64.84;63838.41;5031000;28;20194;-57
2023/04/29 03:29:39;;;;;;;12.20;4.43;;;;;;;8.35;65.39;63812.22;5030721;28;20214;-56
2023/04/29 03:32:05;;;;;;;7.53;4.80;;;;;;;8.21;67.18;63799.41;5031089;28;20568;-56
2023/04/29 03:34:31;;;;;;;9.93;5.13;;;;;;;8.35;66.99;63812.22;5031202;28;20214;-58
2023/04/29 03:36:56;;;;;;;7.20;4.43;;;;;;;8.39;66.61;63818.53;5030774;28;20251;-55
2023/04/29 03:39:21;;;;;;;8.23;4.67;;;;;;;7.86;68.43;63758.16;5030895;28;20217;-55
2023/04/29 03:41:47;;;;;;;8.67;4.60;;;;;;;7.49;69.10;63720.81;5030559;28;20269;-55
2023/04/29 03:44:13;;;;;;;7.57;5.27;;;;;;;7.57;69.50;63732.59;5061446;23;20238;-55
2023/04/29 03:46:38;;;;;;;9.03;5.07;;;;;;;7.85;68.63;63760.09;5070498;28;20728;-55
2023/04/29 03:49:04;;;;;;;9.87;4.97;;;;;;;8.00;69.29;63775.94;5057019;28;20209;-55
2023/04/29 03:51:29;;;;;;;8.03;4.40;;;;;;;8.24;68.29;63802.69;5050623;28;20190;-55
2023/04/29 03:53:56;;;;;;;9.77;4.63;;;;;;;8.55;68.18;63832.94;5050773;28;20683;-56
2023/04/29 03:56:22;;;;;;;10.33;5.33;;;;;;;8.67;67.81;63846.06;5050493;28;20243;-58
2023/04/29 03:58:48;;;;;;;8.77;4.60;;;;;;;8.58;66.73;63838.75;5050669;28;20213;-61
2023/04/29 04:01:14;;;;;;;13.67;5.20;;;;;;;8.76;66.28;63856.44;5050227;28;20659;-63
2023/04/29 04:03:40;;;;;;;13.70;5.13;;;;;;;8.89;65.09;63870.09;5050572;28;20245;-57
2023/04/29 04:06:05;;;;;;;9.37;4.40;;;;;;;8.64;66.05;63845.31;5050198;28;20664;-58
2023/04/29 04:08:31;;;;;;;7.33;3.60;;;;;;;8.67;64.73;63846.59;5050312;28;20241;-58
2023/04/29 04:11:01;;;;;;;4.87;3.27;;;;;;;8.67;63.79;63848.56;5050391;28;20652;-58
2023/04/29 04:13:27;;;;;;;6.30;2.70;;;;;;;8.39;62.14;63819.09;5032623;28;20228;-58
2023/04/29 04:15:53;;;;;;;4.07;2.63;;;;;;;8.08;63.57;63785.22;5050276;28;20186;-57
2023/04/29 04:18:18;;;;;;;4.37;3.10;;;;;;;7.99;64.06;63774.84;5050324;28;20219;-56
2023/04/29 04:20:44;;;;;;;4.57;3.03;;;;;;;8.14;63.20;63788.72;5032529;28;20205;-56
2023/04/29 04:23:09;;;;;;;7.53;4.73;;;;;;;8.09;62.46;63783.25;5051492;28;20253;-58
2023/04/29 04:25:35;;;;;;;6.53;2.87;;;;;;;7.94;63.84;63766.88;5053418;28;20208;-58
2023/04/29 04:28:01;;;;;;;4.43;2.93;;;;;;;8.01;63.47;63774.50;5053506;28;20229;-58
2023/04/29 04:30:26;;;;;;;3.77;2.60;;;;;;;8.05;63.54;63781.94;5053266;28;20563;-62
2023/04/29 04:32:51;;;;;;;4.63;2.97;;;;;;;8.09;63.10;63786.31;5053519;28;20193;-56
2023/04/29 04:35:17;;;;;;;6.07;2.63;;;;;;;8.30;65.27;63809.25;5053412;28;20555;-55
2023/04/29 04:37:42;;;;;;;3.37;2.83;;;;;;;8.41;63.52;63818.22;5053335;28;20591;-57
2023/04/29 04:40:10;;;;;;;4.70;3.13;;;;;;;8.50;63.88;63827.50;5053246;28;20197;-56
2023/04/29 04:42:35;;;;;;;5.83;2.70;;;;;;;8.76;62.79;63855.91;5053164;28;20687;-57
2023/04/29 04:45:01;;;;;;;4.37;2.70;;;;;;;8.86;63.57;63869.34;5053364;28;20235;-56
2023/04/29 04:47:27;;;;;;;4.93;2.80;;;;;;;8.84;63.23;63865.19;5053179;28;20280;-56
2023/04/29 04:49:52;;;;;;;5.43;3.17;;;;;;;8.95;62.54;63877.19;5053082;28;20750;-57
2023/04/29 04:52:21;;;;;;;6.63;3.10;;;;;;;8.77;63.63;63859.50;5035325;28;20281;-57
2023/04/29 04:54:46;;;;;;;5.80;3.40;;;;;;;8.27;64.16;63805.97;5053018;28;20217;-59
2023/04/29 04:57:12;;;;;;;4.50;3.00;;;;;;;8.59;63.74;63837.31;5053142;28;20214;-58
2023/04/29 04:59:38;;;;;;;4.60;3.10;;;;;;;8.71;63.39;63852.94;5078718;22;20267;-59
2023/04/29 05:02:03;;;;;;;9.83;3.27;;;;;;;8.80;63.36;63860.81;5073005;28;20204;-59
2023/04/29 05:04:29;;;;;;;4.23;2.93;;;;;;;9.02;62.42;63884.84;5057250;28;20213;-59
2023/04/29 05:06:54;;;;;;;4.67;3.17;;;;;;;9.02;62.29;63881.78;5052901;28;20675;-61
2023/04/29 05:09:20;;;;;;;5.07;3.30;;;;;;;9.14;62.45;63899.94;5053182;28;20223;-59
2023/04/29 05:11:45;;;;;;;6.67;3.57;;;;;;;8.95;63.10;63874.69;5052736;28;20202;-58
2023/04/29 05:14:11;;;;;;;4.17;3.43;;;;;;;9.05;62.75;63887.59;5053081;28;20274;-59
2023/04/29 05:16:37;;;;;;;5.73;3.13;;;;;;;9.21;63.08;63905.63;5052582;28;20186;-57
2023/04/29 05:19:02;;;;;;;7.17;3.43;;;;;;;9.24;64.37;63911.41;5052443;28;20225;-58
2023/04/29 05:21:27;;;;;;;5.40;3.10;;;;;;;9.56;63.52;63945.84;5052626;28;20247;-59
2023/04/29 05:23:53;;;;;;;7.43;3.50;;;;;;;9.50;62.76;63936.22;5052501;28;20628;-59
2023/04/29 05:26:18;;;;;;;5.83;3.30;;;;;;;9.28;62.93;63915.25;5052496;28;20186;-58
2023/04/29 05:28:43;;;;;;;3.37;3.07;;;;;;;9.35;63.99;63919.84;5052456;28;20694;-58
2023/04/29 05:31:10;;;;;;;5.57;3.67;;;;;;;9.37;64.13;63924.53;5052544;28;20189;-58
2023/04/29 05:33:35;;;;;;;5.37;3.33;;;;;;;9.42;64.53;63928.03;5051984;28;20228;-58
2023/04/29 05:36:01;;;;;;;5.47;3.20;;;;;;;9.37;63.24;63924.53;5052405;28;20185;-58
2023/04/29 05:38:27;;;;;;;7.27;3.90;;;;;;;9.39;64.27;63927.28;5052722;28;20300;-60
2023/04/29 05:40:54;;;;;;;6.20;3.50;;;;;;;9.48;64.22;63936.56;5052229;28;20248;-59
2023/04/29 05:43:20;;;;;;;5.70;3.47;;;;;;;9.57;63.93;63946.41;5052340;28;20306;-58
2023/04/29 05:45:46;;;;;;;7.23;3.80;;;;;;;9.46;63.26;63932.41;5052325;28;20228;-58
2023/04/29 05:48:11;;;;;;;6.63;3.60;;;;;;;9.81;63.88;63970.13;5052133;28;20240;-58
2023/04/29 05:50:37;;;;;;;5.87;3.37;;;;;;;9.86;63.13;63978.66;5052199;28;20277;-57
2023/04/29 05:53:03;;;;;;;6.27;3.87;;;;;;;9.73;61.89;63959.41;5052122;28;20299;-59
2023/04/29 05:55:29;;;;;;;4.43;3.67;;;;;;;9.74;62.55;63960.50;5052050;28;20722;-60
2023/04/29 05:57:54;;;;;;;8.07;4.13;;;;;;;9.74;64.05;63965.53;5052161;28;20273;-60
2023/04/29 06:00:20;;;;;;;7.27;3.90;;;;;;;9.73;63.97;63961.38;5052089;28;20194;-60
2023/04/29 06:02:46;;;;;;;7.90;4.87;;;;;;;9.65;65.10;63955.16;5051952;28;20280;-60
2023/04/29 06:05:11;;;;;;;8.27;4.07;;;;;;;9.90;64.96;63978.00;5052091;28;20554;-60
2023/04/29 06:07:38;;;;;;;9.90;6.47;;;;;;;9.59;66.67;63946.63;5051895;28;20194;-60
2023/04/29 06:10:04;;;;;;;8.90;6.17;;;;;;;9.29;67.31;63914.34;5051886;28;20288;-59
2023/04/29 06:12:30;;;;;;;10.27;5.43;;;;;;;9.59;65.97;63946.63;5051674;28;20576;-56
2023/04/29 06:14:55;;;;;;;11.93;5.63;;;;;;;9.76;65.61;63962.69;5051756;28;20733;-55
2023/04/29 06:17:20;;;;;;;9.90;5.10;;;;;;;10.02;66.25;63993.63;5051745;28;20231;-56
2023/04/29 06:19:46;;;;;;;12.90;5.93;;;;;;;10.31;64.66;64024.31;5051831;28;20224;-56
2023/04/29 06:22:11;;;;;;;10.27;5.03;;;;;;;10.18;63.75;64010.09;5051622;28;20752;-58
2023/04/29 06:24:37;;;;;;;10.73;5.33;;;;;;;10.33;63.93;64029.00;5051835;28;20308;-57
2023/04/29 06:27:03;;;;;;;7.20;5.20;;;;;;;10.66;62.93;64060.66;5033830;28;20221;-57
2023/04/29 06:29:29;;;;;;;7.93;4.90;;;;;;;10.75;62.30;64073.00;5051708;28;20217;-58
2023/04/29 06:31:54;;;;;;;6.90;4.57;;;;;;;10.33;62.52;64027.03;5051711;28;20189;-58
2023/04/29 06:34:20;;;;;;;8.77;4.60;;;;;;;10.17;62.58;64008.97;5051450;28;20305;-58
2023/04/29 06:36:45;;;;;;;7.17;4.67;;;;;;;10.50;61.53;64048.16;5051446;28;20674;-57
2023/04/29 06:39:11;;;;;;;8.97;4.80;;;;;;;10.64;61.97;64058.47;5051686;28;20257;-55
2023/04/29 06:41:36;;;;;;;7.80;4.13;;;;;;;10.82;61.51;64078.16;5051206;28;20213;-57
2023/04/29 06:44:02;;;;;;;8.47;4.60;;;;;;;11.10;66.80;64112.75;5051528;28;20221;-56
2023/04/29 06:46:28;;;;;;;7.67;4.90;;;;;;;11.21;60.54;64122.81;5050576;28;20655;-57
2023/04/29 06:48:53;;;;;;;7.73;5.20;;;;;;;11.07;60.22;64106.97;5033497;28;20217;-57
2023/04/29 06:51:19;;;;;;;6.57;4.40;;;;;;;10.69;61.13;64066.44;5051225;28;20200;-56
2023/04/29 06:53:45;;;;;;;6.73;4.43;;;;;;;10.75;61.62;64073.00;5051286;28;20666;-59
2023/04/29 06:56:11;;;;;;;6.10;4.27;;;;;;;10.79;61.23;64076.84;5051308;28;20236;-57
2023/04/29 06:58:37;;;;;;;6.47;3.97;;;;;;;10.90;61.27;64091.97;5051451;28;20645;-58
2023/04/29 07:01:03;;;;;;;4.97;4.10;;;;;;;10.92;60.96;64091.06;5051274;28;20224;-58
2023/04/29 07:03:29;;;;;;;6.63;4.63;;;;;;;10.92;60.39;64091.63;5051162;28;20236;-59
2023/04/29 07:05:55;;;;;;;8.93;4.67;;;;;;;11.22;59.21;64123.38;5051030;28;20193;-58
2023/04/29 07:08:20;;;;;;;7.50;4.40;;;;;;;11.05;61.13;64104.78;5051105;28;20213;-58
2023/04/29 07:10:54;;;;;;;8.57;4.27;;;;;;;11.22;60.26;64123.94;5033142;28;20284;-57
2023/04/29 07:13:20;;;;;;;7.27;4.73;;;;;;;11.50;60.50;64152.06;5033202;28;20289;-57
2023/04/29 07:15:45;;;;;;;8.20;4.70;;;;;;;11.18;61.13;64119.53;5051009;28;20584;-57
2023/04/29 07:18:11;;;;;;;9.57;5.30;;;;;;;11.06;62.14;64103.88;5050684;28;20809;-58
2023/04/29 07:20:36;;;;;;;9.10;5.30;;;;;;;10.97;63.69;64099.06;5050981;28;20182;-55
2023/04/29 07:23:02;;;;;;;6.53;4.67;;;;;;;11.22;63.57;64126.44;5051193;28;20217;-58
2023/04/29 07:25:28;;;;;;;35.67;18.90;;;;;;;11.13;63.58;64114.06;5050893;28;20280;-56
2023/04/29 07:27:55;;;;;;;7.97;5.20;;;;;;;10.85;63.50;64083.94;5032906;28;20205;-57
2023/04/29 07:30:20;;;;;;;10.80;4.90;;;;;;;11.66;74.28;64172.16;5033370;28;20197;-57
2023/04/29 07:32:46;;;;;;;10.83;6.03;;;;;;;11.65;61.34;64170.50;5050912;28;20220;-57
2023/04/29 07:35:12;;;;;;;12.00;5.73;;;;;;;11.67;59.66;64172.69;5050739;28;20189;-56
2023/04/29 07:37:37;;;;;;;9.87;5.20;;;;;;;11.66;61.38;64174.69;5050581;28;20220;-59
2023/04/29 07:40:03;;;;;;;6.70;4.77;;;;;;;11.76;60.26;64180.59;5050727;28;20668;-57
2023/04/29 07:42:29;;;;;;;9.23;5.53;;;;;;;11.47;59.18;64153.81;5050411;28;20221;-57
2023/04/29 07:44:54;;;;;;;10.17;5.47;;;;;;;11.34;59.31;64134.00;5050669;28;20701;-60
2023/04/29 07:47:20;;;;;;;7.37;4.37;;;;;;;11.99;56.55;64207.22;5050795;28;20690;-60
2023/04/29 07:49:45;;;;;;;5.30;4.70;;;;;;;12.17;56.38;64224.44;5032820;28;20654;-59
2023/04/29 07:52:11;;;;;;;7.50;5.18;;;;;;;12.17;56.55;64226.94;5051090;28;20189;-60
2023/04/29 07:54:36;;;;;;;8.73;5.60;;;;;;;12.39;57.52;64251.06;5050439;28;20236;-61
2023/04/29 07:57:03;;;;;;;9.97;5.90;;;;;;;12.66;57.14;64281.22;5033701;28;20587;-59
2023/04/29 07:59:29;;;;;;;5.73;4.57;;;;;;;12.85;54.26;64300.97;5054024;28;20225;-56
2023/04/29 08:01:55;;;;;;;9.00;4.97;;;;;;;12.58;53.75;64269.38;5053775;28;20239;-57
2023/04/29 08:04:20;;;;;;;8.35;4.78;;;;;;;12.60;54.74;64271.59;5053763;28;20209;-57
2023/04/29 08:06:45;;;;;;;7.22;4.10;;;;;;;12.82;55.23;64297.69;5053971;28;20239;-56
2023/04/29 08:09:11;;;;;;;11.50;5.38;;;;;;;13.01;54.19;64316.00;5036257;28;20566;-57
2023/04/29 08:11:38;;;;;;;8.57;5.07;;;;;;;13.32;54.13;64350.59;5053904;28;20217;-58
2023/04/29 08:14:04;;;;;;;5.03;3.83;;;;;;;13.46;52.36;64367.94;5053918;28;20212;-57
2023/04/29 08:16:30;;;;;;;7.70;4.22;;;;;;;13.48;51.83;64368.16;5053983;28;20197;-58
2023/04/29 08:18:56;;;;;;;4.53;3.78;;;;;;;13.62;50.30;64385.50;5054041;28;20224;-59
2023/04/29 08:21:22;;;;;;;7.00;4.03;;;;;;;13.83;50.63;64408.56;5053812;28;20260;-57
2023/04/29 08:23:48;;;;;;;5.17;4.03;;;;;;;14.16;50.18;64444.25;5053819;28;20210;-57
2023/04/29 08:26:13;;;;;;;4.68;3.28;;;;;;;14.22;48.69;64446.31;5053719;28;20686;-57
2023/04/29 08:28:39;;;;;;;6.18;3.70;;;;;;;14.26;47.98;64453.25;5053301;28;20252;-57
2023/04/29 08:31:06;;;;;;;3.00;2.70;;;;;;;14.28;46.11;64457.47;5053367;28;20209;-57
2023/04/29 08:33:35;;;;;;;4.20;3.15;;;;;;;14.34;45.95;64460.97;5053712;28;20232;-56
2023/04/29 08:36:02;;;;;;;6.22;3.88;;;;;;;14.18;46.88;64449.53;5053253;28;20219;-60
2023/04/29 08:38:28;;;;;;;6.72;3.42;;;;;;;14.58;48.49;64487.91;5053689;28;20217;-60
2023/04/29 08:40:55;;;;;;;5.90;4.15;;;;;;;14.71;48.71;64504.16;5053383;28;20186;-60
2023/04/29 08:43:21;;;;;;;7.82;3.22;;;;;;;15.03;47.70;64539.34;5035548;28;20707;-61
2023/04/29 08:45:50;;;;;;;8.40;3.42;;;;;;;15.25;45.89;64563.53;5053199;28;20280;-60
2023/04/29 08:48:17;;;;;;;6.55;3.67;;;;;;;15.05;43.83;64542.09;5053102;28;20292;-58
2023/04/29 08:50:43;;;;;;;5.22;3.03;;;;;;;14.91;42.86;64523.59;5053211;28;20216;-56
2023/04/29 08:53:10;;;;;;;3.88;2.65;;;;;;;14.86;44.50;64518.13;5053234;28;20300;-59
2023/04/29 08:55:40;;;;;;;8.10;2.75;;;;;;;14.95;43.86;64531.09;5053156;28;20210;-60
2023/04/29 08:58:06;;;;;;;5.00;2.75;;;;;;;15.08;43.63;64540.31;5053200;28;20205;-62
2023/04/29 09:00:33;;;;;;;4.95;2.40;;;;;;;15.38;43.21;64575.28;5053124;28;20196;-59
2023/04/29 09:03:03;;;;;;;6.43;3.40;;;;;;;15.49;41.08;64584.31;5053068;28;20214;-60
2023/04/29 09:05:30;;;;;;;8.90;6.05;;;;;;;15.31;41.97;64567.56;5052894;28;20193;-59
2023/04/29 09:08:02;;;;;;;5.05;3.08;;;;;;;15.40;43.46;64579.47;5052748;28;20290;-61
2023/04/29 09:10:27;;;;;;;12.77;5.82;;;;;;;15.59;44.75;64598.41;5035806;28;20685;-57
2023/04/29 09:12:56;;;;;;;7.40;3.05;;;;;;;15.52;44.45;64595.22;5052883;28;20190;-57
2023/04/29 09:19:08;;;;;;;6.20;2.75;;;;;;;15.06;42.13;64540.66;5053213;28;20263;-61
2023/04/29 09:21:34;;;;;;;7.32;3.10;;;;;;;15.61;44.09;64602.59;5052758;28;20205;-61
2023/04/29 09:24:01;;;;;;;5.60;2.85;;;;;;;16.23;44.91;64670.25;5052857;28;20644;-60
2023/04/29 09:26:39;;;;;;;5.15;2.45;;;;;;;16.67;42.03;64716.72;5052685;28;20200;-60
2023/04/29 09:29:05;;;;;;;4.63;2.67;;;;;;;16.98;40.80;64750.31;5052753;28;20209;-60
2023/04/29 09:31:30;;;;;;;6.78;2.80;;;;;;;16.95;39.85;64746.47;5052603;28;20200;-61
2023/04/29 09:33:57;;;;;;;3.28;2.53;;;;;;;16.64;39.95;64715.97;5034992;28;20209;-61
2023/04/29 09:36:36;;;;;;;5.85;2.85;;;;;;;16.71;39.48;64723.69;5052513;28;20667;-61
2023/04/29 09:39:04;;;;;;;5.85;3.53;;;;;;;16.55;39.31;64702.97;5052676;28;20228;-57
2023/04/29 09:41:30;;;;;;;4.55;2.80;;;;;;;16.58;40.07;64709.34;5052289;28;20189;-58
2023/04/29 09:44:05;;;;;;;5.95;2.78;;;;;;;16.29;38.55;64674.88;5052585;28;20596;-58
2023/04/29 09:46:35;;;;;;;8.68;4.80;;;;;;;15.91;41.82;64633.06;5052231;28;20188;-57
2023/04/29 09:49:22;;;;;;;3.10;2.50;;;;;;;16.26;39.55;64674.13;5052453;28;20753;-58
2023/04/29 09:51:52;;;;;;;8.20;3.65;;;;;;;16.22;39.64;64669.19;5052478;28;20197;-60
2023/04/29 09:54:23;;;;;;;7.57;4.00;;;;;;;16.31;39.12;64677.09;5052206;28;20590;-59
2023/04/29 09:56:51;;;;;;;4.85;2.63;;;;;;;16.53;38.80;64703.31;5052159;28;20181;-57
2023/04/29 09:59:20;;;;;;;6.32;3.15;;;;;;;17.21;38.66;64773.09;5052018;28;20292;-58
2023/04/29 10:01:54;;;;;;;5.57;2.92;;;;;;;17.56;37.62;64814.25;5051936;28;20205;-58
2023/04/29 10:04:21;;;;;;;4.28;2.90;;;;;;;17.34;37.87;64791.97;5052619;28;20205;-58
2023/04/29 10:06:53;;;;;;;5.15;3.17;;;;;;;17.63;36.70;64821.94;5052011;28;20189;-59
2023/04/29 10:09:20;;;;;;;6.93;3.13;;;;;;;18.03;38.23;64864.94;5052026;28;20221;-58
2023/04/29 10:11:47;;;;;;;7.35;3.80;;;;;;;18.17;37.21;64883.50;5051920;28;20686;-56
2023/04/29 10:14:17;;;;;;;5.93;3.63;;;;;;;18.32;36.40;64897.47;5052030;28;20345;-60
2023/04/29 10:17:01;;;;;;;5.93;4.22;;;;;;;17.42;35.94;64795.69;5051968;28;20659;-57
2023/04/29 10:19:46;;;;;;;7.63;4.90;;;;;;;17.16;37.64;64772.69;5051840;28;20695;-59
2023/04/29 10:22:20;;;;;;;7.65;3.90;;;;;;;17.15;36.78;64771.59;5050846;28;20208;-58
2023/04/29 10:24:48;;;;;;;7.97;5.07;;;;;;;17.41;36.90;64795.13;5052217;28;20280;-58
2023/04/29 10:27:15;;;;;;;8.57;4.95;;;;;;;17.31;38.40;64786.13;5051748;28;20198;-60
2023/04/29 10:29:42;;;;;;;5.32;4.50;;;;;;;17.43;38.53;64799.34;5033854;28;20278;-60
2023/04/29 10:32:09;;;;;;;4.72;4.03;;;;;;;17.36;39.38;64789.09;5051585;28;20198;-59
2023/04/29 10:34:38;;;;;;;10.60;3.75;;;;;;;17.68;37.59;64826.38;5051920;28;20220;-56
2023/04/29 10:37:07;;;;;;;6.30;4.25;;;;;;;17.53;35.41;64813.47;5051652;28;20213;-58
2023/04/29 10:39:49;;;;;;;7.15;4.68;;;;;;;17.32;36.46;64790.31;5051669;28;20214;-57
2023/04/29 10:42:53;;;;;;;7.40;4.53;;;;;;;17.67;35.93;64825.81;5051493;28;20201;-58
2023/04/29 10:45:33;;;;;;;7.13;4.38;;;;;;;17.37;34.98;64795.28;5039406;28;20224;-60
2023/04/29 10:48:05;;;;;;;8.00;3.80;;;;;;;17.39;35.77;64792.94;5051616;28;20331;-59
2023/04/29 10:50:49;;;;;;;5.60;3.65;;;;;;;17.36;35.24;64792.19;5051365;28;20201;-58
2023/04/29 10:53:18;;;;;;;5.70;3.70;;;;;;;17.40;35.81;64796.03;5051566;28;20209;-57
2023/04/29 10:55:47;;;;;;;12.13;4.40;;;;;;;17.52;35.78;64809.84;5051398;28;20189;-57
2023/04/29 10:58:36;;;;;;;9.23;5.57;;;;;;;17.09;34.94;64761.91;5033221;28;20253;-61
2023/04/29 11:01:01;;;;;;;11.50;4.68;;;;;;;16.89;35.21;64742.41;5051182;28;20220;-60
2023/04/29 11:03:47;;;;;;;4.45;3.58;;;;;;;16.74;35.31;64723.91;5051252;28;20688;-60
2023/04/29 11:06:14;;;;;;;6.30;3.67;;;;;;;16.62;35.83;64713.75;5033278;28;20702;-58
2023/04/29 11:08:41;;;;;;;4.82;3.72;;;;;;;16.87;36.02;64737.66;5051053;28;20264;-57
2023/04/29 11:11:07;;;;;;;9.15;3.40;;;;;;;16.90;34.63;64740.97;5051067;28;20219;-56
2023/04/29 11:13:37;;;;;;;7.00;3.50;;;;;;;16.92;35.25;64743.72;5051196;28;20213;-60
2023/04/29 11:16:04;;;;;;;8.57;3.38;;;;;;;17.22;36.93;64773.66;5050945;28;20238;-62
2023/04/29 11:18:30;;;;;;;6.82;3.30;;;;;;;17.35;34.79;64791.06;5051213;28;20607;-61
2023/04/29 11:21:04;;;;;;;6.80;3.22;;;;;;;16.86;35.42;64736.56;5051134;28;20205;-60
2023/04/29 11:23:44;;;;;;;7.00;2.15;;;;;;;16.86;35.59;64737.13;5050965;28;20246;-61
2023/04/29 11:26:10;;;;;;;5.53;2.63;;;;;;;16.81;35.70;64734.13;5050848;28;20202;-60
2023/04/29 11:28:35;;;;;;;5.95;2.85;;;;;;;16.86;36.14;64739.66;5050770;28;21155;-57
2023/04/29 11:31:02;;;;;;;4.78;2.28;;;;;;;16.75;34.84;64727.53;5051009;28;20320;-57
2023/04/29 11:33:31;;;;;;;3.55;2.55;;;;;;;16.68;35.32;64717.28;5050454;28;20209;-60
2023/04/29 11:35:57;;;;;;;4.85;2.40;;;;;;;16.72;35.74;64724.78;5032862;28;20194;-60
2023/04/29 11:38:29;;;;;;;4.07;2.22;;;;;;;16.58;34.85;64708.81;5050611;28;20715;-59
2023/04/29 11:40:58;;;;;;;6.30;2.53;;;;;;;17.03;55.51;64757.84;5050651;28;20193;-57
2023/04/29 11:43:24;;;;;;;2.67;1.95;;;;;;;17.06;36.32;64758.59;5050002;28;20225;-58
2023/04/29 11:45:51;;;;;;;3.53;1.80;;;;;;;16.54;35.67;64701.88;5050527;28;20193;-57